Time;durP1;ratioP1;P1;durP2;ratioP2;P2;SDS_P1;SDS_P2;PMS_P1;PMS_P2;Temp;Humidity;BMP_temperature;BMP_pressure;BME280_temperature;BME280_humidity;BME280_pressure;Samples;Min_cycle;Max_cycle;Signal;HPM_P1;HPM_P2
2022/09/04 00:01:30;;;;;;;;;14.67;12.67;;;;;21.45;55.09;100916.63;5068901;28;45888;-75
2022/09/04 00:04:29;;;;;;;;;14.33;14.33;;;;;21.43;55.26;100923.81;5074234;28;45599;-80
2022/09/04 00:07:25;;;;;;;;;18.00;16.67;;;;;21.19;55.16;100886.56;5032838;28;47148;-75
2022/09/04 00:10:13;;;;;;;;;21.00;17.67;;;;;21.33;55.36;100920.63;5058265;28;45384;-77
2022/09/04 00:12:50;;;;;;;;;11.00;11.00;;;;;21.31;55.62;100927.81;5064888;28;45557;-77
2022/09/04 00:15:20;;;;;;;;;13.00;12.67;;;;;21.22;55.55;100909.53;5038269;28;45495;-78
2022/09/04 00:17:52;;;;;;;;;13.33;13.33;;;;;21.29;55.59;100924.34;5066894;27;45823;-77
2022/09/04 00:20:26;;;;;;;;;14.33;14.00;;;;;21.26;55.85;100932.44;5066785;28;45994;-77
2022/09/04 00:23:06;;;;;;;;;14.33;13.67;;;;;21.13;55.41;100914.28;5037833;28;45428;-76
2022/09/04 00:26:13;;;;;;;;;13.67;13.67;;;;;21.16;55.93;100940.78;5037062;28;45478;-75
2022/09/04 00:28:45;;;;;;;;;16.33;13.33;;;;;21.11;56.03;100937.44;5025524;28;45451;-73
2022/09/04 00:31:37;;;;;;;;;23.33;19.00;;;;;21.12;56.00;100944.53;5055528;28;45780;-75
2022/09/04 00:34:31;;;;;;;;;17.00;17.00;;;;;21.03;56.25;100936.88;5054965;28;45556;-76
2022/09/04 00:37:04;;;;;;;;;18.00;16.33;;;;;20.94;56.24;100938.09;5059717;28;46059;-74
2022/09/04 00:39:43;;;;;;;;;13.67;13.67;;;;;21.00;56.20;100947.66;5048007;28;47024;-77
2022/09/04 00:42:11;;;;;;;;;16.67;14.33;;;;;20.97;56.13;100947.75;5071378;28;45432;-72
2022/09/04 00:44:53;;;;;;;;;14.67;13.00;;;;;20.96;56.20;100949.56;5077631;27;45346;-71
2022/09/04 00:48:00;;;;;;;;;15.67;14.00;;;;;20.91;56.04;100953.31;5056426;28;45522;-74
2022/09/04 00:50:47;;;;;;;;;15.33;14.33;;;;;20.91;56.03;100953.31;5074740;28;45651;-72
2022/09/04 00:53:44;;;;;;;;;15.00;15.00;;;;;20.80;56.16;100947.53;5078495;28;45379;-74
2022/09/04 00:56:26;;;;;;;;;14.67;12.67;;;;;20.78;55.66;100952.03;5077903;27;45510;-71
2022/09/04 00:59:14;;;;;;;;;13.67;12.67;;;;;20.65;55.69;100941.84;5074744;28;45467;-74
2022/09/04 01:01:43;;;;;;;;;13.00;11.67;;;;;20.65;55.69;100946.31;5074629;28;45400;-72
2022/09/04 01:04:30;;;;;;;;;14.67;13.00;;;;;20.74;55.53;100968.13;5056288;28;45971;-72
2022/09/04 01:07:02;;;;;;;;;13.33;11.67;;;;;20.73;55.61;100974.34;5074254;27;45715;-71
2022/09/04 01:09:46;;;;;;;;;14.33;12.33;;;;;20.71;55.62;100967.34;5078236;27;45843;-73
2022/09/04 01:12:27;;;;;;;;;12.33;11.00;;;;;20.67;55.38;100968.41;5061725;28;45517;-71
2022/09/04 01:15:18;;;;;;;;;12.67;12.00;;;;;20.49;55.67;100951.28;5073795;28;45576;-72
2022/09/04 01:18:17;;;;;;;;;13.00;12.00;;;;;20.52;55.19;100968.00;5056115;28;45344;-72
2022/09/04 01:21:01;;;;;;;;;15.67;13.00;;;;;20.58;55.34;100980.25;5074082;28;45478;-77
2022/09/04 01:23:42;;;;;;;;;10.67;10.00;;;;;20.53;55.21;100976.84;5055620;27;46675;-72
2022/09/04 01:26:32;;;;;;;;;12.00;9.33;;;;;20.54;55.36;100989.22;5073973;28;45465;-71
2022/09/04 01:29:10;;;;;;;;;10.00;10.00;;;;;20.51;54.90;100992.00;5074621;27;45488;-71
2022/09/04 01:32:00;;;;;;;;;10.33;9.33;;;;;20.46;54.71;100989.50;5075137;28;45414;-71
2022/09/04 01:34:46;;;;;;;;;12.33;10.00;;;;;20.41;54.30;100990.59;5074365;28;45527;-71
2022/09/04 01:37:11;;;;;;;;;10.67;9.67;;;;;20.45;54.45;100995.72;5052265;28;45450;-72
2022/09/04 01:39:45;;;;;;;;;8.67;4.67;;;;;20.37;54.55;100979.19;5057831;28;45422;-72
2022/09/04 01:42:30;;;;;;;;;8.67;8.67;;;;;20.46;54.18;100993.94;5065749;27;45553;-72
2022/09/04 01:44:56;;;;;;;;;10.67;7.67;;;;;20.25;54.08;100956.53;5074080;28;45860;-72
2022/09/04 01:47:44;;;;;;;;;7.67;7.67;;;;;20.48;53.55;100997.44;5073213;27;45552;-72
2022/09/04 01:50:18;;;;;;;;;9.67;8.33;;;;;20.51;53.48;101000.84;5054641;28;45504;-70
2022/09/04 01:53:16;;;;;;;;;10.00;6.67;;;;;20.50;53.71;100996.47;5055126;28;45799;-72
2022/09/04 01:55:54;;;;;;;;;6.67;6.00;;;;;20.54;53.32;100991.88;5075202;27;46166;-72
2022/09/04 01:58:53;;;;;;;;;9.33;9.33;;;;;20.52;53.16;100997.28;5073669;28;45757;-72
2022/09/04 02:01:27;;;;;;;;;8.67;7.00;;;;;20.46;52.88;100986.84;5054613;28;45420;-72
2022/09/04 02:04:11;;;;;;;;;9.33;7.67;;;;;20.54;52.94;101005.19;5072809;28;45480;-72
2022/09/04 02:06:47;;;;;;;;;5.67;5.67;;;;;20.51;53.15;101000.84;5073349;28;45509;-71
2022/09/04 02:09:36;;;;;;;;;6.00;6.00;;;;;20.46;53.23;100999.28;5075823;27;45304;-71
2022/09/04 02:12:36;;;;;;;;;5.33;5.00;;;;;20.60;53.05;101012.13;5042952;28;45410;-72
2022/09/04 02:15:17;;;;;;;;;8.00;6.33;;;;;20.32;52.70;100968.69;5076761;27;45870;-71
2022/09/04 02:18:20;;;;;;;;;7.50;7.00;;;;;20.59;52.60;101003.25;5068004;27;46025;-71
2022/09/04 02:20:58;;;;;;;;;5.00;5.00;;;;;20.58;52.73;101014.84;5074337;28;45517;-71
2022/09/04 02:24:25;;;;;;;;;6.33;6.00;;;;;20.65;52.39;101011.03;5074256;27;45578;-71
2022/09/04 02:26:59;;;;;;;;;7.00;6.00;;;;;20.70;52.00;101022.38;5052376;28;45515;-72
2022/09/04 02:29:43;;;;;;;;;5.67;5.67;;;;;20.62;52.28;101019.13;5064429;28;46495;-71
2022/09/04 02:32:17;;;;;;;;;5.67;5.33;;;;;20.67;52.76;101019.84;5076183;27;45472;-71
2022/09/04 02:35:01;;;;;;;;;5.00;5.00;;;;;20.65;52.22;101026.16;5076973;27;45542;-71
2022/09/04 02:37:46;;;;;;;;;6.00;6.00;;;;;20.55;52.37;100993.63;5063674;28;45371;-71
2022/09/04 02:40:27;;;;;;;;;8.00;5.67;;;;;20.84;52.13;101035.22;5050942;28;45793;-70
2022/09/04 02:43:21;;;;;;;;;6.00;5.00;;;;;20.88;52.20;101026.19;5079806;28;45508;-71
2022/09/04 02:45:58;;;;;;;;;4.33;4.33;;;;;20.99;52.12;101025.78;5074795;27;45373;-71
2022/09/04 02:48:56;;;;;;;;;6.67;5.00;;;;;20.85;51.98;101006.78;5058124;28;45435;-72
2022/09/04 02:51:27;;;;;;;;;5.00;5.00;;;;;21.02;51.50;101035.44;5065424;27;46315;-70
2022/09/04 02:54:08;;;;;;;;;5.00;5.00;;;;;20.95;52.33;101049.00;5064146;28;45402;-71
2022/09/04 02:56:46;;;;;;;;;7.00;5.00;;;;;21.05;52.29;101048.69;5037811;28;45568;-72
2022/09/04 02:59:36;;;;;;;;;8.67;6.00;;;;;21.06;51.98;101039.75;5068973;28;45567;-70
2022/09/04 03:02:14;;;;;;;;;5.67;5.00;;;;;21.10;51.71;101044.91;5076201;27;46297;-72
2022/09/04 03:04:53;;;;;;;;;5.00;5.00;;;;;20.84;51.43;100994.41;5057745;28;45453;-72
2022/09/04 03:07:32;;;;;;;;;6.00;5.00;;;;;21.17;51.13;101043.75;5074498;27;45522;-73
2022/09/04 03:10:17;;;;;;;;;5.00;4.33;;;;;21.21;51.22;101041.81;5076604;27;45480;-72
2022/09/04 03:12:59;;;;;;;;;5.67;5.67;;;;;21.17;51.11;101032.25;5079782;28;46624;-73
2022/09/04 03:15:50;;;;;;;;;6.00;6.00;;;;;21.22;51.14;101042.72;5079869;28;45489;-72
2022/09/04 03:18:29;;;;;;;;;5.00;5.00;;;;;21.06;50.97;101007.78;5061595;28;45549;-72
2022/09/04 03:21:15;;;;;;;;;5.33;4.00;;;;;21.26;50.90;101036.34;5079066;27;45303;-72
2022/09/04 03:23:50;;;;;;;;;5.33;4.67;;;;;21.27;50.50;101043.41;5075367;27;45362;-72
2022/09/04 03:26:26;;;;;;;;;5.67;5.67;;;;;21.23;50.46;101039.13;5056807;28;45405;-72
2022/09/04 03:28:58;;;;;;;;;5.00;5.00;;;;;21.30;50.72;101048.63;5053318;28;45495;-72
2022/09/04 03:31:59;;;;;;;;;4.00;4.00;;;;;21.22;50.66;101022.28;5055295;28;45510;-71
2022/09/04 03:34:38;;;;;;;;;4.67;4.67;;;;;21.37;50.33;101037.66;5065988;28;45264;-72
2022/09/04 03:37:36;;;;;;;;;4.00;4.00;;;;;21.21;50.23;101009.00;5075337;27;45374;-72
2022/09/04 03:40:24;;;;;;;;;5.00;4.00;;;;;21.46;50.22;101041.81;5073132;27;45501;-71
2022/09/04 03:43:30;;;;;;;;;4.67;4.67;;;;;21.48;50.47;101042.63;5075606;28;45818;-72
2022/09/04 03:46:26;;;;;;;;;4.33;4.33;;;;;21.47;50.03;101045.34;5077304;28;46044;-70
2022/09/04 03:49:09;;;;;;;;;6.00;5.00;;;;;21.30;50.68;101038.81;5074615;28;45283;-71
2022/09/04 03:51:57;;;;;;;;;8.00;6.00;;;;;21.34;50.50;101048.44;5075733;27;45454;-72
2022/09/04 03:54:23;;;;;;;;;5.00;5.00;;;;;21.33;50.25;101037.84;5055521;28;45493;-72
2022/09/04 03:56:59;;;;;;;;;6.00;5.00;;;;;21.34;50.41;101051.09;5064963;28;45511;-72
2022/09/04 03:59:46;;;;;;;;;5.00;5.00;;;;;21.17;50.32;101027.78;5077525;27;45354;-71
2022/09/04 04:02:24;;;;;;;;;5.67;5.33;;;;;21.30;50.54;101057.47;5077110;27;45544;-71
2022/09/04 04:05:14;;;;;;;;;5.00;5.00;;;;;21.18;50.50;101056.13;5074954;27;45428;-70
2022/09/04 04:08:08;;;;;;;;;6.33;5.33;;;;;21.20;50.46;101053.41;5074837;27;45315;-72
2022/09/04 04:10:44;;;;;;;;;5.00;5.00;;;;;21.26;50.05;101054.97;5075160;27;45611;-72
2022/09/04 04:13:53;;;;;;;;;5.00;5.00;;;;;21.26;49.85;101055.88;5074841;27;45817;-71
2022/09/04 04:16:30;;;;;;;;;7.00;5.33;;;;;21.32;49.95;101068.94;5055772;28;45567;-72
2022/09/04 04:19:18;;;;;;;;;5.67;5.33;;;;;21.33;49.97;101064.47;5074774;28;45544;-71
2022/09/04 04:21:57;;;;;;;;;6.67;4.67;;;;;21.35;49.67;101071.47;5068335;27;45721;-70
2022/09/04 04:25:03;;;;;;;;;4.33;4.33;;;;;21.21;49.78;101046.28;5065979;28;45559;-72
2022/09/04 04:27:41;;;;;;;;;4.33;4.33;;;;;21.38;49.67;101059.88;5056332;28;45536;-72
2022/09/04 04:30:08;;;;;;;;;4.67;4.33;;;;;21.13;49.65;101025.28;5051784;28;46577;-72
2022/09/04 04:33:02;;;;;;;;;5.00;4.00;;;;;21.22;49.73;101048.06;5053733;28;45344;-71
2022/09/04 04:35:54;;;;;;;;;7.00;5.33;;;;;21.31;50.34;101069.03;5055100;28;45533;-71
2022/09/04 04:38:43;;;;;;;;;3.00;3.00;;;;;21.31;49.65;101077.88;5056475;28;45536;-72
2022/09/04 04:41:20;;;;;;;;;5.00;5.00;;;;;21.30;49.83;101068.13;5055076;28;46239;-72
2022/09/04 04:43:58;;;;;;;;;5.67;5.67;;;;;21.06;49.89;101034.41;5036257;28;45436;-71
2022/09/04 04:46:41;;;;;;;;;4.00;4.00;;;;;21.31;49.92;101079.69;5058449;28;45493;-71
2022/09/04 04:49:19;;;;;;;;;6.67;5.67;;;;;21.25;50.08;101079.91;5053265;28;45521;-71
2022/09/04 04:52:22;;;;;;;;;6.00;4.33;;;;;21.12;50.13;101087.47;5045830;28;46801;-71
2022/09/04 04:55:05;;;;;;;;;5.33;5.33;;;;;21.02;50.30;101081.59;5048771;28;45457;-71
2022/09/04 04:57:55;;;;;;;;;5.00;4.00;;;;;21.06;50.62;101087.69;5042236;28;45386;-71
2022/09/04 05:01:04;;;;;;;;;3.00;3.00;;;;;21.01;50.34;101087.84;5062909;28;45344;-73
2022/09/04 05:03:47;;;;;;;;;4.33;4.33;;;;;21.02;50.70;101094.91;5056665;27;45458;-71
2022/09/04 05:06:23;;;;;;;;;4.33;4.33;;;;;20.85;50.28;101068.00;5065858;28;45393;-72
2022/09/04 05:09:10;;;;;;;;;4.67;4.67;;;;;21.00;50.63;101098.53;5053719;28;45459;-73
2022/09/04 05:12:12;;;;;;;;;4.67;4.67;;;;;20.96;50.33;101103.13;5055336;28;45536;-73
2022/09/04 05:15:12;;;;;;;;;4.67;4.33;;;;;20.83;50.28;101107.13;5053498;28;46167;-72
2022/09/04 05:18:24;;;;;;;;;7.00;5.00;;;;;20.70;50.71;101104.03;5043101;28;45601;-72
2022/09/04 05:20:58;;;;;;;;;6.00;6.00;;;;;20.59;50.83;101101.72;5060616;28;45535;-72
2022/09/04 05:23:47;;;;;;;;;6.00;6.00;;;;;20.51;50.95;101119.72;5054379;28;45629;-73
2022/09/04 05:26:42;;;;;;;;;7.67;7.00;;;;;20.30;51.33;101097.34;5051153;28;46550;-73
2022/09/04 05:29:50;;;;;;;;;8.00;8.00;;;;;20.41;51.23;101128.94;5041923;28;45708;-75
2022/09/04 05:32:23;;;;;;;;;6.33;6.00;;;;;20.24;51.55;101102.84;5056131;28;45506;-74
2022/09/04 05:35:05;;;;;;;;;7.33;7.33;;;;;20.29;51.60;101135.50;5062842;28;45473;-72
2022/09/04 05:37:45;;;;;;;;;6.67;5.33;;;;;20.29;51.71;101141.69;5052202;28;47327;-73
2022/09/04 05:40:50;;;;;;;;;8.33;6.33;;;;;20.31;51.81;101150.50;5035445;28;45449;-73
2022/09/04 05:43:51;;;;;;;;;8.00;7.00;;;;;20.32;51.95;101146.91;5058770;28;45510;-73
2022/09/04 05:46:40;;;;;;;;;7.00;7.00;;;;;20.22;52.05;101129.50;5067458;28;45680;-76
2022/09/04 05:49:41;;;;;;;;;10.00;7.67;;;;;20.30;52.56;101156.72;5057279;28;46485;-75
2022/09/04 05:52:29;;;;;;;;;7.33;7.33;;;;;20.25;52.66;101150.69;5069377;28;45433;-75
2022/09/04 05:55:13;;;;;;;;;9.33;9.00;;;;;20.17;52.95;101155.38;5069847;28;45741;-73
2022/09/04 05:57:56;;;;;;;;;9.00;9.00;;;;;20.11;53.02;101163.53;5065715;28;45464;-75
2022/09/04 06:00:23;;;;;;;;;7.00;6.00;;;;;20.05;53.16;101148.66;5072296;28;46242;-77
2022/09/04 06:03:11;;;;;;;;;8.00;7.33;;;;;19.96;53.54;101126.81;5057521;28;45502;-73
2022/09/04 06:05:45;;;;;;;;;10.67;9.00;;;;;20.19;53.62;101169.47;5060855;28;45445;-74
2022/09/04 06:08:36;;;;;;;;;11.67;9.33;;;;;19.96;53.92;101158.72;5058956;28;45416;-76
2022/09/04 06:11:26;;;;;;;;;11.33;9.33;;;;;19.90;54.63;101184.53;5056284;28;46562;-72
2022/09/04 06:14:10;;;;;;;;;8.00;8.00;;;;;19.67;54.65;101140.03;5057021;28;45518;-77
2022/09/04 06:17:10;;;;;;;;;9.67;9.33;;;;;19.94;55.03;101181.81;5056645;28;45462;-73
2022/09/04 06:20:13;;;;;;;;;10.67;10.33;;;;;19.88;55.10;101181.06;5056874;28;45612;-72
2022/09/04 06:22:45;;;;;;;;;11.67;10.00;;;;;20.10;54.58;101175.13;4987739;28;45685;-73
2022/09/04 06:25:47;;;;;;;;;11.67;10.33;;;;;20.11;54.37;101176.84;5050368;28;45524;-71
2022/09/04 06:28:27;;;;;;;;;8.67;8.67;;;;;20.17;54.61;101181.97;5063640;28;45531;-74
2022/09/04 06:31:19;;;;;;;;;10.33;9.67;;;;;20.34;54.23;101187.63;5078803;28;45422;-76
2022/09/04 06:34:18;;;;;;;;;11.00;10.67;;;;;20.42;54.04;101170.56;5073543;27;45786;-71
2022/09/04 06:37:15;;;;;;;;;9.33;9.33;;;;;20.66;53.86;101198.19;5054309;28;45535;-73
2022/09/04 06:39:59;;;;;;;;;15.50;12.00;;;;;20.67;53.74;101200.81;5077011;27;45415;-75
2022/09/04 06:42:43;;;;;;;;;12.33;10.33;;;;;20.64;54.20;101195.56;5076606;28;45510;-75
2022/09/04 06:45:19;;;;;;;;;13.33;10.00;;;;;20.62;54.15;101202.78;5076044;27;45388;-70
2022/09/04 06:48:03;;;;;;;;;12.33;12.33;;;;;20.54;54.30;101210.06;5075956;28;45729;-71
2022/09/04 06:50:32;;;;;;;;;12.33;10.67;;;;;20.63;54.77;101208.97;5057793;28;45338;-75
2022/09/04 06:53:04;;;;;;;;;13.00;12.00;;;;;20.74;53.54;101217.47;5070392;27;45477;-73
2022/09/04 06:55:37;;;;;;;;;13.33;11.00;;;;;20.84;53.56;101212.72;5078028;27;46084;-75
2022/09/04 06:58:13;;;;;;;;;9.67;9.67;;;;;21.09;53.24;101210.94;5075890;27;45425;-76
2022/09/04 07:01:01;;;;;;;;;11.00;9.67;;;;;21.21;52.90;101209.66;5079336;28;45523;-74
2022/09/04 07:04:06;;;;;;;;;9.33;9.33;;;;;21.31;52.49;101211.09;5076803;28;45336;-74
2022/09/04 07:06:52;;;;;;;;;11.33;10.67;;;;;21.46;52.06;101212.38;5075823;27;45489;-73
2022/09/04 07:09:24;;;;;;;;;10.33;7.33;;;;;21.55;51.22;101206.72;5075667;27;45414;-73
2022/09/04 07:12:10;;;;;;;;;9.67;9.67;;;;;21.55;51.37;101206.72;5075943;27;45473;-72
2022/09/04 07:15:11;;;;;;;;;13.67;9.67;;;;;21.58;51.46;101219.03;5065155;27;45438;-75
2022/09/04 07:17:58;;;;;;;;;13.33;10.33;;;;;21.80;51.39;101213.78;5066911;27;45748;-74
2022/09/04 07:20:49;;;;;;;;;10.67;8.33;;;;;21.68;51.45;101214.25;5077202;27;45493;-81
2022/09/04 07:23:26;;;;;;;;;11.00;11.00;;;;;21.69;51.86;101229.31;5060109;28;45570;-75
2022/09/04 07:26:27;;;;;;;;;13.33;9.33;;;;;21.75;51.31;101224.63;5075936;28;45560;-81
2022/09/04 07:29:10;;;;;;;;;10.67;8.67;;;;;21.86;51.32;101236.72;5044907;28;46784;-79
2022/09/04 07:31:53;;;;;;;;;10.33;10.33;;;;;22.00;50.54;101240.59;5053392;28;45780;-73
2022/09/04 07:34:31;;;;;;;;;11.33;9.33;;;;;21.99;51.01;101236.16;5057269;27;45499;-74
2022/09/04 07:37:05;;;;;;;;;11.67;9.67;;;;;21.76;50.70;101202.38;5074263;28;45444;-75
2022/09/04 07:39:53;;;;;;;;;10.00;10.00;;;;;21.93;50.92;101233.75;5056968;28;47388;-78
2022/09/04 07:42:37;;;;;;;;;10.00;10.00;;;;;21.90;50.79;101241.88;5076668;28;45614;-79
2022/09/04 07:45:24;;;;;;;;;10.00;10.00;;;;;21.86;50.53;101210.03;5078290;28;45352;-78
2022/09/04 07:48:04;;;;;;;;;11.67;11.33;;;;;21.90;50.42;101212.53;5076938;27;45398;-77
2022/09/04 07:51:03;;;;;;;;;8.33;8.33;;;;;22.30;50.53;101240.38;5078834;27;45977;-80
2022/09/04 07:53:56;;;;;;;;;10.33;9.33;;;;;22.49;49.57;101245.84;5076986;27;45410;-76
2022/09/04 07:59:08;;;;;;;;;11.33;11.33;;;;;22.66;48.60;101261.22;5088222;27;45768;-75
2022/09/04 08:02:07;;;;;;;;;9.00;8.67;;;;;22.62;48.51;101262.28;5079572;27;45401;-76
2022/09/04 08:05:05;;;;;;;;;9.33;9.33;;;;;22.62;48.77;101249.78;5102185;27;45857;-75
2022/09/04 08:07:33;;;;;;;;;12.00;8.33;;;;;22.75;48.31;101268.84;5094593;27;45859;-78
2022/09/04 08:10:20;;;;;;;;;13.67;12.33;;;;;22.81;48.43;101267.75;5089756;27;46718;-78
2022/09/04 08:12:58;;;;;;;;;6.33;6.33;;;;;22.98;48.19;101270.63;5091113;27;45543;-77
2022/09/04 08:15:40;;;;;;;;;10.33;9.00;;;;;23.10;48.29;101271.91;5094064;27;45436;-73
2022/09/04 08:18:20;;;;;;;;;9.67;8.00;;;;;23.06;48.03;101272.97;5090636;27;45416;-77
2022/09/04 08:21:24;;;;;;;;;9.00;8.00;;;;;22.99;47.61;101276.81;5089584;27;46606;-73
2022/09/04 08:24:04;;;;;;;;;9.67;9.67;;;;;22.90;48.07;101279.81;5079356;27;45416;-78
2022/09/04 08:26:57;;;;;;;;;9.00;9.00;;;;;22.93;48.38;101277.06;5089442;27;45896;-78
2022/09/04 08:29:47;;;;;;;;;10.00;10.00;;;;;23.10;48.02;101273.72;5091396;27;45398;-78
2022/09/04 08:32:39;;;;;;;;;13.00;9.33;;;;;23.16;47.52;101249.38;5086137;27;47854;-75
2022/09/04 08:35:17;;;;;;;;;10.67;9.67;;;;;23.38;46.92;101266.25;5090956;27;45370;-75
2022/09/04 08:38:04;;;;;;;;;10.00;10.00;;;;;23.46;46.73;101272.13;5089870;27;45502;-74
2022/09/04 08:40:45;;;;;;;;;14.33;10.33;;;;;23.49;46.85;101280.03;5088627;27;45350;-76
2022/09/04 08:43:43;;;;;;;;;8.67;8.67;;;;;23.43;46.47;101279.44;5088832;27;46821;-73
2022/09/04 08:46:37;;;;;;;;;8.00;7.33;;;;;23.47;46.56;101273.03;5075368;27;45402;-78
2022/09/04 08:49:06;;;;;;;;;8.00;8.00;;;;;23.55;45.41;101278.03;5090820;27;45497;-77
2022/09/04 08:51:56;;;;;;;;;9.00;7.00;;;;;23.55;45.59;101275.34;5092966;27;45527;-71
2022/09/04 08:54:34;;;;;;;;;6.33;6.00;;;;;23.55;45.59;101267.34;5090136;27;46509;-77
2022/09/04 08:57:31;;;;;;;;;7.67;7.00;;;;;23.60;45.64;101278.69;5097306;27;45406;-78
2022/09/04 09:00:06;;;;;;;;;8.00;8.00;;;;;23.75;45.40;101294.09;5100276;27;45475;-75
2022/09/04 09:03:09;;;;;;;;;7.00;7.00;;;;;23.95;44.39;101295.88;5092179;27;47437;-73
2022/09/04 09:05:45;;;;;;;;;8.00;8.00;;;;;23.95;44.74;101282.50;5093503;27;45701;-76
2022/09/04 09:08:43;;;;;;;;;7.00;7.00;;;;;24.12;44.45;101289.75;5090109;27;45437;-70
2022/09/04 09:11:24;;;;;;;;;9.67;8.67;;;;;;;;5094126;27;45645;-70
2022/09/04 09:13:55;;;;;;;;;9.00;9.00;;;;;24.41;42.99;101298.25;5080739;27;45649;-73
2022/09/04 09:16:33;;;;;;;;;9.33;7.67;;;;;24.33;43.04;101301.28;5098466;27;46009;-72
2022/09/04 09:19:10;;;;;;;;;7.00;6.33;;;;;24.12;43.73;101297.78;5098573;27;45461;-70
2022/09/04 09:21:56;;;;;;;;;8.67;8.67;;;;;24.19;43.32;101276.97;5079217;27;45590;-71
2022/09/04 09:24:36;;;;;;;;;7.33;7.33;;;;;24.34;43.16;101298.56;5094429;27;45308;-68
2022/09/04 09:27:17;;;;;;;;;9.00;7.00;;;;;;;;5075927;27;47677;-70
2022/09/04 09:30:10;;;;;;;;;7.67;7.00;;;;;24.48;42.15;101297.91;5097548;27;45299;-71
2022/09/04 09:32:54;;;;;;;;;7.67;7.67;;;;;24.50;41.58;101298.72;5065468;27;45425;-72
2022/09/04 09:35:40;;;;;;;;;5.67;5.67;;;;;24.52;41.99;101295.97;5095149;27;45390;-69
2022/09/04 09:38:49;;;;;;;;;6.33;5.33;;;;;24.72;41.51;101292.34;5085668;27;46173;-70
2022/09/04 09:41:33;;;;;;;;;6.00;6.00;;;;;24.75;40.77;101289.53;5082665;27;45492;-73
2022/09/04 09:44:50;;;;;;;;;6.00;5.33;;;;;24.81;40.44;101289.22;5097033;27;45682;-68
2022/09/04 09:47:15;;;;;;;;;6.00;6.00;;;;;24.93;40.02;101295.78;5097119;27;45461;-70
2022/09/04 09:49:53;;;;;;;;;5.00;5.00;;;;;24.98;40.12;101291.06;5095975;27;46371;-69
2022/09/04 09:52:51;;;;;;;;;10.67;6.00;;;;;25.08;40.09;101288.78;5096019;27;45575;-72
2022/09/04 09:55:28;;;;;;;;;5.33;4.67;;;;;25.22;38.97;101286.31;5096569;27;45728;-73
2022/09/04 09:58:44;;;;;;;;;6.00;6.00;;;;;25.26;38.64;101282.53;5097580;27;45673;-71
2022/09/04 10:01:21;;;;;;;;;5.00;5.00;;;;;25.25;39.29;101278.13;5052758;27;45549;-74
2022/09/04 10:04:31;;;;;;;;;6.33;5.67;;;;;25.23;38.82;101265.75;5078728;27;45461;-72
2022/09/04 10:07:20;;;;;;;;;6.00;6.00;;;;;25.48;39.71;101276.06;5031644;28;45699;-71
2022/09/04 10:10:23;;;;;;;;;6.67;6.00;;;;;25.61;38.36;101279.84;5095011;27;45378;-72
2022/09/04 10:13:21;;;;;;;;;6.00;5.67;;;;;25.74;38.41;101272.88;5073403;27;47065;-73
2022/09/04 10:16:26;;;;;;;;;4.00;4.00;;;;;25.98;38.70;101269.88;5088840;27;45396;-73
2022/09/04 10:19:15;;;;;;;;;5.00;5.00;;;;;26.20;37.94;101272.25;5088743;27;45393;-72
2022/09/04 10:22:07;;;;;;;;;10.00;6.67;;;;;26.12;36.77;101269.97;5081374;27;45426;-71
2022/09/04 10:25:01;;;;;;;;;6.00;5.25;;;;;26.19;36.93;101265.16;5099624;27;45736;-71
2022/09/04 10:28:12;;;;;;;;;5.00;5.00;;;;;26.45;36.98;101263.69;5062969;27;45640;-69
2022/09/04 10:31:15;;;;;;;;;5.75;5.00;;;;;26.50;36.93;101263.44;5090941;27;45496;-70
2022/09/04 10:34:16;;;;;;;;;5.00;4.50;;;;;26.61;37.07;101251.16;5096285;27;45532;-69
2022/09/04 10:37:06;;;;;;;;;5.00;5.00;;;;;26.72;36.97;101250.56;5098700;27;46206;-71
2022/09/04 10:43:10;;;;;;;;;6.00;6.00;;;;;26.69;37.67;101250.72;5099802;27;45373;-69
2022/09/04 10:45:39;;;;;;;;;6.00;6.00;;;;;26.81;37.35;101252.72;5080078;27;45464;-70
2022/09/04 10:48:33;;;;;;;;;5.00;5.00;;;;;26.92;37.08;101254.75;5078867;27;47853;-68
2022/09/04 10:50:58;;;;;;;;;5.00;5.00;;;;;27.14;37.06;101256.19;5093350;27;45572;-70
2022/09/04 10:53:59;;;;;;;;;7.00;5.50;;;;;27.32;36.96;101254.28;5074895;27;45480;-71
2022/09/04 10:56:33;;;;;;;;;5.75;5.00;;;;;27.41;36.31;101238.44;5081111;27;45493;-70
2022/09/04 10:59:25;;;;;;;;;6.25;5.75;;;;;27.47;36.26;101243.44;5094967;27;46539;-70
2022/09/04 11:02:31;;;;;;;;;4.25;4.00;;;;;27.52;36.08;101244.97;5076245;27;45596;-70
2022/09/04 11:05:19;;;;;;;;;6.00;6.00;;;;;27.39;36.22;101229.59;5081764;27;45511;-68
2022/09/04 11:08:11;;;;;;;;;5.75;5.75;;;;;27.46;35.69;101232.78;5094528;27;45490;-69
2022/09/04 11:11:06;;;;;;;;;5.25;5.25;;;;;27.54;35.65;101227.78;5076615;27;45410;-68
2022/09/04 11:14:05;;;;;;;;;5.00;5.00;;;;;27.67;35.31;101227.91;5076950;27;45444;-71
2022/09/04 11:17:08;;;;;;;;;5.75;5.75;;;;;27.67;35.35;101238.66;5091904;27;45393;-68
2022/09/04 11:19:56;;;;;;;;;6.25;6.25;;;;;27.84;34.91;101224.19;5074240;27;45397;-71
2022/09/04 11:22:33;;;;;;;;;4.75;4.00;;;;;27.91;34.91;101233.59;5076347;27;47008;-68
2022/09/04 11:25:27;;;;;;;;;5.25;4.75;;;;;28.26;35.57;101219.69;5095460;27;45369;-71
2022/09/04 11:28:14;;;;;;;;;7.75;6.00;;;;;28.68;35.28;101217.88;5067529;27;45421;-66
2022/09/04 11:31:04;;;;;;;;;4.50;4.50;;;;;28.93;33.88;101231.47;5095130;27;45467;-70
2022/09/04 11:33:46;;;;;;;;;7.00;5.75;;;;;29.25;33.89;101219.47;5075828;27;46581;-70
2022/09/04 11:36:40;;;;;;;;;6.00;6.00;;;;;29.09;32.88;101211.56;5074261;27;45552;-70
2022/09/04 11:39:34;;;;;;;;;6.00;5.50;;;;;29.27;33.00;101217.53;5073326;27;45399;-70
2022/09/04 11:42:23;;;;;;;;;5.00;4.50;;;;;29.33;32.82;101212.59;5039593;27;45682;-70
2022/09/04 11:45:16;;;;;;;;;7.00;7.00;;;;;29.57;33.03;101215.41;5079201;27;45525;-71
2022/09/04 11:47:55;;;;;;;;;9.00;6.00;;;;;29.92;32.06;101213.88;5066219;27;45546;-72
2022/09/04 11:51:04;;;;;;;;;3.75;3.50;;;;;29.80;31.76;101199.41;5058181;27;46829;-74
2022/09/04 11:54:05;;;;;;;;;5.75;5.00;;;;;30.13;31.58;101206.91;5085248;27;45737;-72
2022/09/04 11:57:02;;;;;;;;;5.25;5.25;;;;;30.02;31.41;101199.59;5074967;27;45520;-71
2022/09/04 11:59:52;;;;;;;;;5.80;5.80;;;;;30.13;31.47;101211.47;5072964;27;45541;-69
2022/09/04 12:02:37;;;;;;;;;5.00;5.00;;;;;30.50;31.33;101206.94;5057455;28;45517;-69
2022/09/04 12:05:39;;;;;;;;;5.00;5.00;;;;;31.15;30.24;101211.03;5060102;27;45656;-69
2022/09/04 12:08:36;;;;;;;;;6.00;6.00;;;;;32.62;28.55;101203.81;5073619;28;46199;-69
2022/09/04 12:11:38;;;;;;;;;5.60;5.60;;;;;34.23;26.88;101212.56;5082678;27;45708;-68
2022/09/04 12:14:23;;;;;;;;;7.60;5.20;;;;;34.87;25.25;101206.63;5056183;28;45617;-68
2022/09/04 12:16:58;;;;;;;;;4.60;4.60;;;;;34.71;24.43;101196.31;5055504;27;45826;-68
2022/09/04 12:19:41;;;;;;;;;4.00;4.00;;;;;35.01;25.07;101199.91;5073021;27;46241;-69
2022/09/04 12:22:50;;;;;;;;;3.80;3.80;;;;;36.15;23.96;101191.69;5073255;27;45556;-70
2022/09/04 12:26:04;;;;;;;;;4.00;4.00;;;;;35.85;23.86;101199.97;5074197;27;45503;-71
2022/09/04 12:28:42;;;;;;;;;5.80;5.80;;;;;35.94;23.41;101167.41;5089120;27;45307;-71
2022/09/04 12:31:52;;;;;;;;;5.40;4.60;;;;;36.18;23.78;101184.06;5081674;27;46609;-71
2022/09/04 12:34:36;;;;;;;;;5.20;5.20;;;;;36.64;22.42;101176.72;5026237;27;45841;-71
2022/09/04 12:37:59;;;;;;;;;4.20;4.20;;;;;36.43;22.39;101174.28;5069746;27;45598;-71
2022/09/04 12:40:44;;;;;;;;;5.60;4.80;;;;;35.58;23.58;101129.13;4991383;28;45623;-71
2022/09/04 12:43:41;;;;;;;;;5.60;5.60;;;;;35.51;23.74;101187.94;4983723;28;45388;-75
2022/09/04 12:46:15;;;;;;;;;8.20;5.80;;;;;34.95;24.66;101189.59;5087899;27;45702;-74
2022/09/04 12:48:59;;;;;;;;;5.40;4.20;;;;;34.22;25.23;101189.97;5075086;27;45398;-74
2022/09/04 12:51:39;;;;;;;;;4.40;4.40;;;;;34.50;25.13;101190.13;5099374;27;45503;-75
2022/09/04 12:54:30;;;;;;;;;6.00;5.80;;;;;34.34;24.92;101174.38;5100579;27;45266;-72
2022/09/04 12:57:05;;;;;;;;;5.00;4.60;;;;;34.65;25.49;101174.28;5098002;27;45400;-72
2022/09/04 12:59:46;;;;;;;;;5.20;4.40;;;;;34.88;24.78;101143.03;5076648;27;45567;-74